sensor_id;sensor_type;location;lat;lon;timestamp;pressure;altitude;pressure_sealevel;temperature;humidity
15294;BME280;7748;52.474;13.454;2022-11-18T00:01:23;99933.84;;;2.67;100.00
15294;BME280;7748;52.474;13.454;2022-11-18T00:03:51;99933.84;;;2.67;100.00
15294;BME280;7748;52.474;13.454;2022-11-18T00:06:21;99926.69;;;2.62;100.00
15294;BME280;7748;52.474;13.454;2022-11-18T00:08:49;99932.25;;;2.69;100.00
15294;BME280;7748;52.474;13.454;2022-11-18T00:11:19;99922.88;;;2.70;100.00
15294;BME280;7748;52.474;13.454;2022-11-18T00:14:03;99921.50;;;2.60;100.00
15294;BME280;7748;52.474;13.454;2022-11-18T00:16:51;99916.06;;;2.54;100.00
15294;BME280;7748;52.474;13.454;2022-11-18T00:19:20;99919.09;;;2.47;100.00
15294;BME280;7748;52.474;13.454;2022-11-18T00:21:48;99909.88;;;2.50;100.00
15294;BME280;7748;52.474;13.454;2022-11-18T00:24:16;99925.66;;;2.42;100.00
15294;BME280;7748;52.474;13.454;2022-11-18T00:26:45;99926.31;;;2.54;100.00
15294;BME280;7748;52.474;13.454;2022-11-18T00:29:14;99917.81;;;2.55;100.00
15294;BME280;7748;52.474;13.454;2022-11-18T00:31:43;99918.03;;;2.60;100.00
15294;BME280;7748;52.474;13.454;2022-11-18T00:34:12;99918.13;;;2.61;100.00
15294;BME280;7748;52.474;13.454;2022-11-18T00:36:42;99922.00;;;2.69;100.00
15294;BME280;7748;52.474;13.454;2022-11-18T00:39:10;99924.13;;;2.62;100.00
15294;BME280;7748;52.474;13.454;2022-11-18T00:41:38;99935.44;;;2.33;100.00
15294;BME280;7748;52.474;13.454;2022-11-18T00:44:26;99928.69;;;2.18;100.00
15294;BME280;7748;52.474;13.454;2022-11-18T00:46:54;99936.66;;;2.08;100.00
15294;BME280;7748;52.474;13.454;2022-11-18T00:49:23;99937.63;;;2.10;100.00
15294;BME280;7748;52.474;13.454;2022-11-18T00:51:51;99930.25;;;2.00;100.00
15294;BME280;7748;52.474;13.454;2022-11-18T00:54:19;99945.25;;;1.94;100.00
15294;BME280;7748;52.474;13.454;2022-11-18T00:56:47;99935.16;;;2.12;100.00
15294;BME280;7748;52.474;13.454;2022-11-18T00:59:15;99942.25;;;2.01;100.00
15294;BME280;7748;52.474;13.454;2022-11-18T01:01:45;99948.09;;;1.98;100.00
15294;BME280;7748;52.474;13.454;2022-11-18T01:04:14;99944.81;;;2.01;100.00
15294;BME280;7748;52.474;13.454;2022-11-18T01:06:42;99952.66;;;2.04;100.00
15294;BME280;7748;52.474;13.454;2022-11-18T01:09:10;99927.94;;;2.04;100.00
15294;BME280;7748;52.474;13.454;2022-11-18T01:11:38;99946.28;;;2.12;100.00
15294;BME280;7748;52.474;13.454;2022-11-18T01:14:24;99957.34;;;1.96;100.00
15294;BME280;7748;52.474;13.454;2022-11-18T01:16:54;99940.66;;;2.03;100.00
15294;BME280;7748;52.474;13.454;2022-11-18T01:19:23;99945.00;;;2.20;100.00
15294;BME280;7748;52.474;13.454;2022-11-18T01:21:51;99948.03;;;2.13;100.00
15294;BME280;7748;52.474;13.454;2022-11-18T01:24:19;99949.31;;;1.90;100.00
15294;BME280;7748;52.474;13.454;2022-11-18T01:26:47;99944.03;;;1.87;100.00
15294;BME280;7748;52.474;13.454;2022-11-18T01:29:15;99949.34;;;1.75;100.00
15294;BME280;7748;52.474;13.454;2022-11-18T01:31:44;99937.97;;;1.70;100.00
15294;BME280;7748;52.474;13.454;2022-11-18T01:34:33;99947.47;;;1.87;100.00
15294;BME280;7748;52.474;13.454;2022-11-18T01:37:01;99941.13;;;1.81;100.00
15294;BME280;7748;52.474;13.454;2022-11-18T01:39:29;99955.59;;;1.95;100.00
15294;BME280;7748;52.474;13.454;2022-11-18T01:41:57;99957.44;;;1.98;100.00
15294;BME280;7748;52.474;13.454;2022-11-18T01:45:00;99952.03;;;2.08;100.00
15294;BME280;7748;52.474;13.454;2022-11-18T01:47:33;99958.56;;;2.03;100.00
15294;BME280;7748;52.474;13.454;2022-11-18T01:50:04;99962.56;;;1.98;100.00
15294;BME280;7748;52.474;13.454;2022-11-18T01:52:33;99942.34;;;1.87;100.00
15294;BME280;7748;52.474;13.454;2022-11-18T01:55:06;99948.09;;;1.98;100.00
15294;BME280;7748;52.474;13.454;2022-11-18T01:57:35;99944.69;;;2.14;100.00
15294;BME280;7748;52.474;13.454;2022-11-18T02:00:06;99951.16;;;1.93;100.00
15294;BME280;7748;52.474;13.454;2022-11-18T02:02:36;99946.84;;;1.92;100.00
15294;BME280;7748;52.474;13.454;2022-11-18T02:05:07;99949.75;;;1.98;100.00
15294;BME280;7748;52.474;13.454;2022-11-18T02:07:39;99948.09;;;1.98;100.00
15294;BME280;7748;52.474;13.454;2022-11-18T02:10:16;99957.16;;;2.08;100.00
15294;BME280;7748;52.474;13.454;2022-11-18T02:12:45;99968.84;;;1.88;100.00
15294;BME280;7748;52.474;13.454;2022-11-18T02:15:13;99954.50;;;1.60;100.00
15294;BME280;7748;52.474;13.454;2022-11-18T02:17:47;99969.69;;;1.72;100.00
15294;BME280;7748;52.474;13.454;2022-11-18T02:20:29;99953.78;;;1.63;100.00
15294;BME280;7748;52.474;13.454;2022-11-18T02:29:16;99960.84;;;1.67;100.00
15294;BME280;7748;52.474;13.454;2022-11-18T02:31:50;99967.19;;;1.88;100.00
15294;BME280;7748;52.474;13.454;2022-11-18T02:34:30;99962.78;;;1.71;100.00
15294;BME280;7748;52.474;13.454;2022-11-18T02:37:04;99964.38;;;1.54;100.00
15294;BME280;7748;52.474;13.454;2022-11-18T02:39:35;99973.38;;;1.62;100.00
15294;BME280;7748;52.474;13.454;2022-11-18T02:42:08;99967.19;;;1.74;100.00
15294;BME280;7748;52.474;13.454;2022-11-18T02:44:42;99966.66;;;1.79;100.00
15294;BME280;7748;52.474;13.454;2022-11-18T02:47:14;99974.97;;;1.75;100.00
15294;BME280;7748;52.474;13.454;2022-11-18T02:49:46;99968.41;;;1.80;100.00
15294;BME280;7748;52.474;13.454;2022-11-18T02:52:15;99960.47;;;1.91;100.00
15294;BME280;7748;52.474;13.454;2022-11-18T02:54:47;99971.59;;;1.76;100.00
15294;BME280;7748;52.474;13.454;2022-11-18T02:57:17;99963.28;;;1.80;100.00
15294;BME280;7748;52.474;13.454;2022-11-18T02:59:47;99969.75;;;1.88;100.00
15294;BME280;7748;52.474;13.454;2022-11-18T03:02:17;99972.50;;;1.77;100.00
15294;BME280;7748;52.474;13.454;2022-11-18T03:04:46;99965.72;;;1.47;100.00
15294;BME280;7748;52.474;13.454;2022-11-18T03:07:17;99974.59;;;1.69;100.00
15294;BME280;7748;52.474;13.454;2022-11-18T03:09:50;99973.22;;;1.44;100.00
15294;BME280;7748;52.474;13.454;2022-11-18T03:12:23;99967.03;;;1.56;100.00
15294;BME280;7748;52.474;13.454;2022-11-18T03:15:04;99965.34;;;1.71;100.00
15294;BME280;7748;52.474;13.454;2022-11-18T03:17:43;99954.66;;;1.63;100.00
15294;BME280;7748;52.474;13.454;2022-11-18T03:20:18;99959.63;;;1.45;100.00
15294;BME280;7748;52.474;13.454;2022-11-18T03:22:52;99968.63;;;1.39;100.00
15294;BME280;7748;52.474;13.454;2022-11-18T03:25:28;99971.63;;;1.32;100.00
15294;BME280;7748;52.474;13.454;2022-11-18T03:28:03;99972.69;;;1.35;100.00
15294;BME280;7748;52.474;13.454;2022-11-18T03:30:37;99968.34;;;1.34;100.00
15294;BME280;7748;52.474;13.454;2022-11-18T03:33:09;99975.16;;;1.19;100.00
15294;BME280;7748;52.474;13.454;2022-11-18T03:35:43;99983.44;;;1.15;100.00
15294;BME280;7748;52.474;13.454;2022-11-18T03:38:15;99976.72;;;1.32;100.00
15294;BME280;7748;52.474;13.454;2022-11-18T03:40:48;99979.56;;;1.21;100.00
15294;BME280;7748;52.474;13.454;2022-11-18T03:43:20;99979.72;;;1.24;100.00
15294;BME280;7748;52.474;13.454;2022-11-18T03:45:53;99988.53;;;1.30;100.00
15294;BME280;7748;52.474;13.454;2022-11-18T03:48:26;99991.00;;;1.13;100.00
15294;BME280;7748;52.474;13.454;2022-11-18T03:50:58;99984.31;;;1.15;100.00
15294;BME280;7748;52.474;13.454;2022-11-18T03:53:31;99999.09;;;1.06;100.00
15294;BME280;7748;52.474;13.454;2022-11-18T03:56:04;100000.41;;;0.99;100.00
15294;BME280;7748;52.474;13.454;2022-11-18T03:58:44;99995.84;;;1.09;100.00
15294;BME280;7748;52.474;13.454;2022-11-18T04:01:18;99991.69;;;1.11;100.00
15294;BME280;7748;52.474;13.454;2022-11-18T04:03:48;99998.38;;;0.94;100.00
15294;BME280;7748;52.474;13.454;2022-11-18T04:06:20;100009.94;;;0.74;100.00
15294;BME280;7748;52.474;13.454;2022-11-18T04:08:54;100003.63;;;0.82;100.00
15294;BME280;7748;52.474;13.454;2022-11-18T04:11:30;100017.72;;;0.75;100.00
15294;BME280;7748;52.474;13.454;2022-11-18T04:14:17;100013.41;;;0.74;100.00
15294;BME280;7748;52.474;13.454;2022-11-18T04:16:51;100012.22;;;0.69;100.00
15294;BME280;7748;52.474;13.454;2022-11-18T04:19:19;100018.00;;;0.80;100.00
15294;BME280;7748;52.474;13.454;2022-11-18T04:21:51;100009.47;;;0.94;100.00
15294;BME280;7748;52.474;13.454;2022-11-18T04:24:22;100006.97;;;0.81;100.00
15294;BME280;7748;52.474;13.454;2022-11-18T04:26:50;100016.50;;;0.83;100.00
15294;BME280;7748;52.474;13.454;2022-11-18T04:29:19;100012.63;;;0.90;100.00
15294;BME280;7748;52.474;13.454;2022-11-18T04:31:47;100016.16;;;0.92;100.00
15294;BME280;7748;52.474;13.454;2022-11-18T04:34:17;100022.84;;;0.90;100.00
15294;BME280;7748;52.474;13.454;2022-11-18T04:36:46;100026.94;;;1.01;100.00
15294;BME280;7748;52.474;13.454;2022-11-18T04:39:14;100022.50;;;0.84;100.00
15294;BME280;7748;52.474;13.454;2022-11-18T04:41:44;100027.75;;;0.72;100.00
15294;BME280;7748;52.474;13.454;2022-11-18T04:44:25;100037.03;;;0.85;100.00
15294;BME280;7748;52.474;13.454;2022-11-18T04:46:54;100042.19;;;0.72;100.00
15294;BME280;7748;52.474;13.454;2022-11-18T04:49:25;100040.31;;;0.69;100.00
15294;BME280;7748;52.474;13.454;2022-11-18T04:51:54;100045.44;;;0.69;100.00
15294;BME280;7748;52.474;13.454;2022-11-18T04:54:23;100047.91;;;0.68;100.00
15294;BME280;7748;52.474;13.454;2022-11-18T04:56:51;100054.94;;;0.85;100.00
15294;BME280;7748;52.474;13.454;2022-11-18T04:59:21;100051.22;;;0.80;100.00
15294;BME280;7748;52.474;13.454;2022-11-18T05:01:49;100046.88;;;0.79;100.00
15294;BME280;7748;52.474;13.454;2022-11-18T05:04:20;100050.09;;;0.90;100.00
15294;BME280;7748;52.474;13.454;2022-11-18T05:06:50;100050.56;;;0.97;100.00
15294;BME280;7748;52.474;13.454;2022-11-18T05:09:18;100044.44;;;0.80;100.00
15294;BME280;7748;52.474;13.454;2022-11-18T05:11:48;100059.34;;;0.88;100.00
15294;BME280;7748;52.474;13.454;2022-11-18T05:14:36;100063.72;;;0.75;100.00
15294;BME280;7748;52.474;13.454;2022-11-18T05:17:07;100062.31;;;0.94;100.00
15294;BME280;7748;52.474;13.454;2022-11-18T05:19:36;100062.84;;;0.75;100.00
15294;BME280;7748;52.474;13.454;2022-11-18T05:22:09;100066.56;;;0.80;100.00
15294;BME280;7748;52.474;13.454;2022-11-18T05:24:39;100062.84;;;0.75;100.00
15294;BME280;7748;52.474;13.454;2022-11-18T05:27:07;100063.25;;;0.68;100.00
15294;BME280;7748;52.474;13.454;2022-11-18T05:29:35;100060.41;;;0.63;100.00
15294;BME280;7748;52.474;13.454;2022-11-18T05:32:03;100061.56;;;0.68;100.00
15294;BME280;7748;52.474;13.454;2022-11-18T05:34:31;100060.28;;;0.75;100.00
15294;BME280;7748;52.474;13.454;2022-11-18T05:36:59;100066.94;;;0.86;100.00
15294;BME280;7748;52.474;13.454;2022-11-18T05:39:30;100070.81;;;0.53;100.00
15294;BME280;7748;52.474;13.454;2022-11-18T05:41:58;100078.59;;;0.54;100.00
15294;BME280;7748;52.474;13.454;2022-11-18T05:44:44;100089.00;;;0.57;100.00
15294;BME280;7748;52.474;13.454;2022-11-18T05:47:12;100087.91;;;0.67;100.00
15294;BME280;7748;52.474;13.454;2022-11-18T05:49:40;100104.63;;;0.75;100.00
15294;BME280;7748;52.474;13.454;2022-11-18T05:52:08;100088.41;;;0.75;100.00
15294;BME280;7748;52.474;13.454;2022-11-18T05:54:41;100097.59;;;0.45;100.00
15294;BME280;7748;52.474;13.454;2022-11-18T05:57:11;100092.66;;;0.34;100.00
15294;BME280;7748;52.474;13.454;2022-11-18T05:59:39;100103.75;;;0.48;100.00
15294;BME280;7748;52.474;13.454;2022-11-18T06:02:10;100103.47;;;0.57;100.00
15294;BME280;7748;52.474;13.454;2022-11-18T06:04:42;100113.22;;;0.49;100.00
15294;BME280;7748;52.474;13.454;2022-11-18T06:07:15;100116.06;;;0.40;100.00
15294;BME280;7748;52.474;13.454;2022-11-18T06:09:49;100111.81;;;0.41;100.00
15294;BME280;7748;52.474;13.454;2022-11-18T06:12:20;100113.00;;;0.33;100.00
15294;BME280;7748;52.474;13.454;2022-11-18T06:14:51;100115.16;;;0.40;100.00
15294;BME280;7748;52.474;13.454;2022-11-18T06:17:23;100124.41;;;0.51;100.00
15294;BME280;7748;52.474;13.454;2022-11-18T06:19:53;100121.06;;;0.52;100.00
15294;BME280;7748;52.474;13.454;2022-11-18T06:22:21;100126.94;;;0.65;100.00
15294;BME280;7748;52.474;13.454;2022-11-18T06:24:50;100130.47;;;0.53;100.00
15294;BME280;7748;52.474;13.454;2022-11-18T06:27:19;100138.53;;;0.46;100.00
15294;BME280;7748;52.474;13.454;2022-11-18T06:29:47;100141.28;;;0.62;100.00
15294;BME280;7748;52.474;13.454;2022-11-18T06:32:15;100144.25;;;0.69;100.00
15294;BME280;7748;52.474;13.454;2022-11-18T06:34:42;100136.47;;;0.67;100.00
15294;BME280;7748;52.474;13.454;2022-11-18T06:37:14;100150.75;;;0.63;100.00
15294;BME280;7748;52.474;13.454;2022-11-18T06:39:42;100158.28;;;0.62;100.00
15294;BME280;7748;52.474;13.454;2022-11-18T06:42:12;100156.66;;;0.49;100.00
15294;BME280;7748;52.474;13.454;2022-11-18T06:45:01;100161.53;;;0.46;100.00
15294;BME280;7748;52.474;13.454;2022-11-18T06:47:28;100163.31;;;0.47;100.00
15294;BME280;7748;52.474;13.454;2022-11-18T06:49:56;100168.41;;;0.34;100.00
15294;BME280;7748;52.474;13.454;2022-11-18T06:52:23;100167.03;;;0.26;100.00
15294;BME280;7748;52.474;13.454;2022-11-18T06:54:52;100173.44;;;0.46;100.00
15294;BME280;7748;52.474;13.454;2022-11-18T06:57:21;100174.41;;;0.34;100.00
15294;BME280;7748;52.474;13.454;2022-11-18T06:59:49;100185.50;;;0.22;100.00
15294;BME280;7748;52.474;13.454;2022-11-18T07:02:17;100189.22;;;0.27;100.00
15294;BME280;7748;52.474;13.454;2022-11-18T07:04:45;100183.16;;;0.38;100.00
15294;BME280;7748;52.474;13.454;2022-11-18T07:07:13;100191.75;;;0.13;100.00
15294;BME280;7748;52.474;13.454;2022-11-18T07:09:41;100189.22;;;0.27;100.00
15294;BME280;7748;52.474;13.454;2022-11-18T07:12:10;100183.34;;;0.41;100.00
15294;BME280;7748;52.474;13.454;2022-11-18T07:14:39;100189.66;;;0.33;100.00
15294;BME280;7748;52.474;13.454;2022-11-18T07:17:07;100206.88;;;0.10;100.00
15294;BME280;7748;52.474;13.454;2022-11-18T07:19:35;100196.50;;;0.34;100.00
15294;BME280;7748;52.474;13.454;2022-11-18T07:22:03;100197.00;;;0.28;100.00
15294;BME280;7748;52.474;13.454;2022-11-18T07:24:31;100199.28;;;0.50;100.00
15294;BME280;7748;52.474;13.454;2022-11-18T07:26:59;100196.69;;;0.37;100.00
15294;BME280;7748;52.474;13.454;2022-11-18T07:29:27;100204.22;;;0.60;100.00
15294;BME280;7748;52.474;13.454;2022-11-18T07:31:56;100202.63;;;0.62;100.00
15294;BME280;7748;52.474;13.454;2022-11-18T07:34:24;100207.75;;;0.49;100.00
15294;BME280;7748;52.474;13.454;2022-11-18T07:36:52;100223.66;;;0.72;100.00
15294;BME280;7748;52.474;13.454;2022-11-18T07:39:20;100215.13;;;0.45;100.00
15294;BME280;7748;52.474;13.454;2022-11-18T07:41:48;100213.03;;;0.26;100.00
15294;BME280;7748;52.474;13.454;2022-11-18T07:44:16;100210.47;;;0.39;100.00
15294;BME280;7748;52.474;13.454;2022-11-18T07:46:44;100219.38;;;0.32;100.00
15294;BME280;7748;52.474;13.454;2022-11-18T07:49:13;100223.75;;;0.60;100.00
15294;BME280;7748;52.474;13.454;2022-11-18T07:51:42;100215.00;;;0.43;100.00
15294;BME280;7748;52.474;13.454;2022-11-18T07:54:12;100228.38;;;0.52;100.00
15294;BME280;7748;52.474;13.454;2022-11-18T07:56:42;100237.63;;;0.63;100.00
15294;BME280;7748;52.474;13.454;2022-11-18T07:59:10;100229.38;;;0.68;100.00
15294;BME280;7748;52.474;13.454;2022-11-18T08:01:38;100231.72;;;0.65;100.00
15294;BME280;7748;52.474;13.454;2022-11-18T08:04:08;100233.84;;;0.32;100.00
15294;BME280;7748;52.474;13.454;2022-11-18T08:06:38;100249.78;;;0.41;100.00
15294;BME280;7748;52.474;13.454;2022-11-18T08:09:07;100238.19;;;0.46;100.00
15294;BME280;7748;52.474;13.454;2022-11-18T08:11:35;100240.97;;;0.62;100.00
15294;BME280;7748;52.474;13.454;2022-11-18T08:14:03;100238.59;;;0.52;100.00
15294;BME280;7748;52.474;13.454;2022-11-18T08:16:31;100239.56;;;0.41;100.00
15294;BME280;7748;52.474;13.454;2022-11-18T08:18:59;100235.25;;;0.53;100.00
15294;BME280;7748;52.474;13.454;2022-11-18T08:21:28;100228.09;;;0.61;100.00
15294;BME280;7748;52.474;13.454;2022-11-18T08:23:57;100245.78;;;0.71;100.00
15294;BME280;7748;52.474;13.454;2022-11-18T08:26:26;100246.66;;;0.72;100.00
15294;BME280;7748;52.474;13.454;2022-11-18T08:28:56;100253.50;;;0.46;100.00
15294;BME280;7748;52.474;13.454;2022-11-18T08:31:25;100244.47;;;0.38;100.00
15294;BME280;7748;52.474;13.454;2022-11-18T08:33:54;100245.63;;;0.30;100.00
15294;BME280;7748;52.474;13.454;2022-11-18T08:36:28;100268.59;;;0.30;100.00
15294;BME280;7748;52.474;13.454;2022-11-18T08:39:00;100249.53;;;0.25;100.00
15294;BME280;7748;52.474;13.454;2022-11-18T08:41:31;100261.19;;;0.33;100.00
15294;BME280;7748;52.474;13.454;2022-11-18T08:44:00;100272.34;;;0.22;100.00
15294;BME280;7748;52.474;13.454;2022-11-18T08:46:28;100272.47;;;0.36;100.00
15294;BME280;7748;52.474;13.454;2022-11-18T08:48:57;100280.81;;;0.34;100.00
15294;BME280;7748;52.474;13.454;2022-11-18T08:51:27;100270.97;;;0.27;100.00
15294;BME280;7748;52.474;13.454;2022-11-18T08:53:55;100285.72;;;0.06;100.00
15294;BME280;7748;52.474;13.454;2022-11-18T08:56:25;100277.94;;;0.04;100.00
15294;BME280;7748;52.474;13.454;2022-11-18T08:58:53;100287.47;;;0.32;100.00
15294;BME280;7748;52.474;13.454;2022-11-18T09:01:21;100286.72;;;0.46;100.00
15294;BME280;7748;52.474;13.454;2022-11-18T09:03:49;100303.91;;;0.60;100.00
15294;BME280;7748;52.474;13.454;2022-11-18T09:06:19;100308.34;;;0.13;100.00
15294;BME280;7748;52.474;13.454;2022-11-18T09:08:48;100295.56;;;0.38;100.00
15294;BME280;7748;52.474;13.454;2022-11-18T09:11:17;100309.16;;;0.25;100.00
15294;BME280;7748;52.474;13.454;2022-11-18T09:13:47;100314.91;;;0.34;100.00
15294;BME280;7748;52.474;13.454;2022-11-18T09:16:38;100318.81;;;0.29;100.00
15294;BME280;7748;52.474;13.454;2022-11-18T09:19:06;100343.72;;;0.20;100.00
15294;BME280;7748;52.474;13.454;2022-11-18T09:21:54;100330.03;;;0.31;100.00
15294;BME280;7748;52.474;13.454;2022-11-18T09:24:22;100334.97;;;0.41;100.00
15294;BME280;7748;52.474;13.454;2022-11-18T09:26:50;100345.41;;;0.19;100.00
15294;BME280;7748;52.474;13.454;2022-11-18T09:29:20;100341.63;;;0.26;100.00
15294;BME280;7748;52.474;13.454;2022-11-18T09:31:51;100339.97;;;0.15;100.00
15294;BME280;7748;52.474;13.454;2022-11-18T09:34:20;100344.31;;;0.41;100.00
15294;BME280;7748;52.474;13.454;2022-11-18T09:36:48;100343.41;;;0.15;100.00
15294;BME280;7748;52.474;13.454;2022-11-18T09:39:16;100353.19;;;0.21;100.00
15294;BME280;7748;52.474;13.454;2022-11-18T09:41:45;100358.97;;;0.44;100.00
15294;BME280;7748;52.474;13.454;2022-11-18T09:44:29;100351.84;;;0.51;100.00
15294;BME280;7748;52.474;13.454;2022-11-18T09:47:08;100356.41;;;0.69;100.00
15294;BME280;7748;52.474;13.454;2022-11-18T09:49:42;100362.94;;;0.90;100.00
15294;BME280;7748;52.474;13.454;2022-11-18T09:52:16;100359.38;;;0.75;100.00
15294;BME280;7748;52.474;13.454;2022-11-18T09:54:45;100361.69;;;0.58;100.00
15294;BME280;7748;52.474;13.454;2022-11-18T09:57:15;100365.22;;;0.60;100.00
15294;BME280;7748;52.474;13.454;2022-11-18T09:59:45;100368.31;;;0.43;100.00
15294;BME280;7748;52.474;13.454;2022-11-18T10:02:27;100364.91;;;-0.06;100.00
15294;BME280;7748;52.474;13.454;2022-11-18T10:04:56;100376.13;;;-0.04;100.00
15294;BME280;7748;52.474;13.454;2022-11-18T10:07:35;100373.34;;;-0.07;100.00
15294;BME280;7748;52.474;13.454;2022-11-18T10:10:11;100371.16;;;0.23;100.00
15294;BME280;7748;52.474;13.454;2022-11-18T10:12:46;100381.81;;;0.29;100.00
15294;BME280;7748;52.474;13.454;2022-11-18T10:15:22;100376.22;;;0.59;100.00
15294;BME280;7748;52.474;13.454;2022-11-18T10:17:59;100380.97;;;0.16;100.00
15294;BME280;7748;52.474;13.454;2022-11-18T10:20:35;100370.94;;;0.19;100.00
15294;BME280;7748;52.474;13.454;2022-11-18T10:23:13;100375.25;;;-0.05;100.00
15294;BME280;7748;52.474;13.454;2022-11-18T10:25:42;100376.06;;;0.19;100.00
15294;BME280;7748;52.474;13.454;2022-11-18T10:28:15;100370.06;;;0.19;100.00
15294;BME280;7748;52.474;13.454;2022-11-18T10:30:45;100382.50;;;0.39;100.00
15294;BME280;7748;52.474;13.454;2022-11-18T10:33:23;100392.78;;;0.28;100.00
15294;BME280;7748;52.474;13.454;2022-11-18T10:36:09;100391.59;;;0.23;100.00
15294;BME280;7748;52.474;13.454;2022-11-18T10:38:38;100397.50;;;0.22;100.00
15294;BME280;7748;52.474;13.454;2022-11-18T10:41:13;100399.41;;;0.62;100.00
15294;BME280;7748;52.474;13.454;2022-11-18T10:43:47;100395.41;;;0.66;100.00
15294;BME280;7748;52.474;13.454;2022-11-18T10:46:22;100387.88;;;0.68;100.00
15294;BME280;7748;52.474;13.454;2022-11-18T10:49:13;100396.34;;;0.80;100.00
15294;BME280;7748;52.474;13.454;2022-11-18T10:51:47;100398.59;;;0.75;100.00
15294;BME280;7748;52.474;13.454;2022-11-18T10:54:17;100406.63;;;0.43;100.00
15294;BME280;7748;52.474;13.454;2022-11-18T10:56:48;100404.28;;;0.46;100.00
15294;BME280;7748;52.474;13.454;2022-11-18T10:59:29;100413.53;;;0.32;100.00
15294;BME280;7748;52.474;13.454;2022-11-18T11:02:03;100410.13;;;0.57;100.00
15294;BME280;7748;52.474;13.454;2022-11-18T11:04:39;100414.56;;;0.59;100.00
15294;BME280;7748;52.474;13.454;2022-11-18T11:07:15;100422.22;;;0.59;100.00
15294;BME280;7748;52.474;13.454;2022-11-18T11:09:43;100428.53;;;0.65;100.00
15294;BME280;7748;52.474;13.454;2022-11-18T11:12:13;100431.75;;;0.37;100.00
15294;BME280;7748;52.474;13.454;2022-11-18T11:14:48;100415.56;;;0.25;100.00
15294;BME280;7748;52.474;13.454;2022-11-18T11:17:21;100411.81;;;0.19;100.00
15294;BME280;7748;52.474;13.454;2022-11-18T11:20:00;100418.16;;;0.50;100.00
15294;BME280;7748;52.474;13.454;2022-11-18T11:22:30;100422.94;;;0.45;100.00
15294;BME280;7748;52.474;13.454;2022-11-18T11:24:58;100420.59;;;0.48;100.00
15294;BME280;7748;52.474;13.454;2022-11-18T11:27:38;100419.72;;;0.48;100.00
15294;BME280;7748;52.474;13.454;2022-11-18T11:30:30;100418.53;;;0.68;100.00
15294;BME280;7748;52.474;13.454;2022-11-18T11:33:18;100425.03;;;0.51;100.00
15294;BME280;7748;52.474;13.454;2022-11-18T11:36:05;100415.75;;;0.65;100.00
15294;BME280;7748;52.474;13.454;2022-11-18T11:38:47;100428.22;;;0.35;100.00
15294;BME280;7748;52.474;13.454;2022-11-18T11:41:29;100424.81;;;0.48;100.00
15294;BME280;7748;52.474;13.454;2022-11-18T11:44:08;100416.13;;;0.57;100.00
15294;BME280;7748;52.474;13.454;2022-11-18T11:46:46;100427.84;;;0.67;100.00
15294;BME280;7748;52.474;13.454;2022-11-18T11:49:50;100421.84;;;0.67;100.00
15294;BME280;7748;52.474;13.454;2022-11-18T11:52:27;100424.97;;;0.74;100.00
15294;BME280;7748;52.474;13.454;2022-11-18T11:55:07;100421.81;;;0.78;100.00
15294;BME280;7748;52.474;13.454;2022-11-18T11:57:51;100420.97;;;0.91;100.00
15294;BME280;7748;52.474;13.454;2022-11-18T12:00:24;100432.81;;;0.77;100.00
15294;BME280;7748;52.474;13.454;2022-11-18T12:03:04;100434.69;;;0.80;100.00
15294;BME280;7748;52.474;13.454;2022-11-18T12:05:40;100435.47;;;0.79;100.00
15294;BME280;7748;52.474;13.454;2022-11-18T12:08:11;100430.22;;;0.89;100.00
15294;BME280;7748;52.474;13.454;2022-11-18T12:10:44;100433.06;;;0.94;100.00
15294;BME280;7748;52.474;13.454;2022-11-18T12:13:31;100435.38;;;0.77;100.00
15294;BME280;7748;52.474;13.454;2022-11-18T12:16:15;100438.25;;;0.82;100.00
15294;BME280;7748;52.474;13.454;2022-11-18T12:18:49;100441.75;;;0.71;100.00
15294;BME280;7748;52.474;13.454;2022-11-18T12:21:56;100451.78;;;0.81;100.00
15294;BME280;7748;52.474;13.454;2022-11-18T12:24:31;100459.72;;;0.97;100.00
15294;BME280;7748;52.474;13.454;2022-11-18T12:27:04;100453.03;;;0.99;100.00
15294;BME280;7748;52.474;13.454;2022-11-18T12:32:30;100465.81;;;0.86;100.00
15294;BME280;7748;52.474;13.454;2022-11-18T12:35:02;100459.31;;;0.91;100.00
15294;BME280;7748;52.474;13.454;2022-11-18T12:37:43;100466.06;;;1.16;100.00
15294;BME280;7748;52.474;13.454;2022-11-18T12:40:39;100459.53;;;1.33;100.00
15294;BME280;7748;52.474;13.454;2022-11-18T12:46:51;100453.03;;;0.99;100.00
15294;BME280;7748;52.474;13.454;2022-11-18T12:52:52;100463.69;;;0.55;100.00
15294;BME280;7748;52.474;13.454;2022-11-18T12:55:24;100463.97;;;0.35;100.00
15294;BME280;7748;52.474;13.454;2022-11-18T12:57:56;100469.72;;;0.44;100.00
15294;BME280;7748;52.474;13.454;2022-11-18T13:00:30;100477.06;;;0.39;100.00
15294;BME280;7748;52.474;13.454;2022-11-18T13:03:00;100466.78;;;0.26;100.00
15294;BME280;7748;52.474;13.454;2022-11-18T13:05:30;100480.44;;;0.15;100.00
15294;BME280;7748;52.474;13.454;2022-11-18T13:08:03;100489.31;;;0.20;100.00
15294;BME280;7748;52.474;13.454;2022-11-18T13:10:45;100490.00;;;0.17;100.00
15294;BME280;7748;52.474;13.454;2022-11-18T13:13:24;100480.97;;;0.23;100.00
15294;BME280;7748;52.474;13.454;2022-11-18T13:15:55;100491.50;;;0.39;100.00
15294;BME280;7748;52.474;13.454;2022-11-18T13:18:49;100494.63;;;0.23;100.00
15294;BME280;7748;52.474;13.454;2022-11-18T13:21:22;100484.44;;;0.35;100.00
15294;BME280;7748;52.474;13.454;2022-11-18T13:24:12;100488.19;;;0.40;100.00
15294;BME280;7748;52.474;13.454;2022-11-18T13:26:41;100497.94;;;0.46;100.00
15294;BME280;7748;52.474;13.454;2022-11-18T13:29:31;100497.16;;;0.47;100.00
15294;BME280;7748;52.474;13.454;2022-11-18T13:32:13;100494.06;;;0.39;100.00
15294;BME280;7748;52.474;13.454;2022-11-18T13:34:46;100495.25;;;0.44;100.00
15294;BME280;7748;52.474;13.454;2022-11-18T13:37:17;100506.56;;;0.59;100.00